.
WxDataArchive / Data Records for 2006-07-03
2006-07-02 July 2006 2006-07-04

Data Records for Monday, 03 July 2006

Time	Temp	Chill	HIndex	Humid	Dewpt	 Wind 	HiWind	WindDir	Rain 	Barom 
-----	----	-----	------	-----	-----	------	------	-------	-----	----- 
00:00	71.1	71.1	71.1	83	65.7	0	2	248	0.00	30.015 
00:05	71.3	71.3	71.3	83	65.9	0	1	248	0.00	30.015 
00:10	71.3	71.3	71.3	82	65.5	0	1	248	0.00	30.015 
00:15	71.3	71.3	71.3	82	65.5	0	1	248	0.00	30.011 
00:20	71.3	71.3	71.3	81	65.2	0	1	248	0.00	30.011 
00:25	71.3	71.3	71.3	81	65.2	0	1	248	0.00	30.011 
00:30	71.3	71.3	71.3	81	65.2	0	1	248	0.00	30.006 
00:35	71.3	71.3	71.3	81	65.2	0	2	248	0.00	30.006 
00:40	71.3	71.3	71.3	81	65.2	0	1	248	0.00	30.006 
00:45	71.1	71.1	71.1	81	65.0	0	1	248	0.00	30.000 
00:50	71.1	71.1	71.1	82	65.3	0	1	248	0.00	30.000 
00:55	70.9	70.9	70.9	82	65.1	0	1	248	0.00	30.000 
01:00	70.8	70.8	70.8	82	65.0	0	2	248	0.00	30.002 
01:05	70.6	70.6	70.6	83	65.2	0	1	248	0.00	30.002 
01:10	70.4	70.4	70.4	83	65.0	0	1	248	0.00	30.002 
01:15	70.4	70.4	70.4	84	65.3	0	2	248	0.00	29.995 
01:20	70.3	70.3	70.3	84	65.2	0	1	248	0.00	29.995 
01:25	70.1	70.1	70.1	85	65.4	0	1	248	0.00	29.995 
01:30	69.9	69.9	69.9	85	65.2	0	0	---	0.00	29.994 
01:35	69.8	69.8	69.8	86	65.4	0	1	248	0.00	29.994 
01:40	69.8	69.8	69.8	86	65.4	0	1	248	0.00	29.994 
01:45	69.6	69.6	69.6	87	65.6	0	0	---	0.00	29.993 
01:50	69.4	69.4	69.4	87	65.4	0	0	---	0.00	29.993 
01:55	69.3	69.3	69.3	88	65.6	0	0	---	0.00	29.993 
02:00	69.1	69.1	69.1	88	65.4	0	0	---	0.00	29.995 
02:05	69.1	69.1	69.1	89	65.7	0	1	248	0.00	29.995 
02:10	68.9	68.9	68.9	89	65.5	0	0	---	0.00	29.995 
02:15	68.8	68.8	68.8	89	65.4	0	0	---	0.00	30.001 
02:20	68.8	68.8	68.8	90	65.7	0	0	---	0.00	30.001 
02:25	68.6	68.6	68.6	90	65.5	0	0	---	0.00	30.001 
02:30	68.4	68.4	68.4	90	65.3	0	0	---	0.00	30.000 
02:35	68.3	68.3	68.3	90	65.2	0	0	---	0.00	30.000 
02:40	68.1	68.1	68.1	90	65.0	0	0	---	0.00	30.000 
02:45	67.9	67.9	67.9	90	64.9	0	0	---	0.00	30.010 
02:50	67.9	67.9	67.9	91	65.2	0	1	248	0.00	30.010 
02:55	67.8	67.8	67.8	91	65.1	0	0	---	0.00	30.010 
03:00	67.9	67.9	67.9	92	65.5	0	0	---	0.00	30.014 
03:05	68.1	68.1	68.1	92	65.7	0	0	---	0.00	30.014 
03:10	68.3	68.3	68.3	92	65.9	0	1	248	0.00	30.014 
03:15	68.6	68.6	68.6	92	66.2	1	3	248	0.00	30.011 
03:20	69.1	69.1	69.1	90	66.0	0	1	248	0.00	30.011 
03:25	69.4	69.4	69.4	89	66.0	1	3	248	0.00	30.011 
03:30	69.8	69.8	69.8	88	66.1	0	2	248	0.00	30.007 
03:35	69.8	69.8	69.8	87	65.7	0	1	248	0.00	30.007 
03:40	69.9	69.9	69.9	87	65.8	0	0	---	0.00	30.007 
03:45	69.9	69.9	69.9	87	65.8	0	0	---	0.00	30.003 
03:50	69.8	69.8	69.8	87	65.7	0	0	---	0.00	30.003 
03:55	69.6	69.6	69.6	87	65.6	0	0	---	0.00	30.003 
04:00	69.4	69.4	69.4	87	65.4	0	0	---	0.00	29.995 
04:05	69.3	69.3	69.3	88	65.6	0	0	---	0.00	29.995 
04:10	69.1	69.1	69.1	88	65.4	0	0	---	0.00	29.995 
04:15	68.8	68.8	68.8	88	65.1	0	0	---	0.00	29.995 
04:20	68.6	68.6	68.6	88	64.9	0	0	---	0.00	29.995 
04:25	68.3	68.3	68.3	90	65.2	0	0	---	0.00	29.995 
04:30	68.1	68.1	68.1	90	65.0	0	0	---	0.00	29.997 
04:35	68.1	68.1	68.1	90	65.0	0	0	---	0.00	29.997 
04:40	67.9	67.9	67.9	90	64.9	0	0	---	0.00	29.997 
04:45	67.8	67.8	67.8	91	65.1	0	0	---	0.00	29.997 
04:50	67.6	67.6	67.6	91	64.9	0	0	---	0.00	29.997 
04:55	67.6	67.6	67.6	91	64.9	0	0	---	0.00	29.997 
05:00	67.4	67.4	67.4	91	64.7	0	0	---	0.00	30.001 
05:05	67.4	67.4	67.4	92	65.0	0	0	---	0.00	30.001 
05:10	67.4	67.4	67.4	92	65.0	0	0	---	0.00	30.001 
05:15	67.4	67.4	67.4	92	65.0	0	0	---	0.00	30.000 
05:20	67.4	67.4	67.4	92	65.0	0	0	---	0.00	30.000 
05:25	67.3	67.3	67.3	92	64.9	0	0	---	0.00	30.000 
05:30	67.3	67.3	67.3	92	64.9	0	0	---	0.00	29.999 
05:35	67.3	67.3	67.3	92	64.9	0	0	---	0.00	29.999 
05:40	67.3	67.3	67.3	92	64.9	0	0	---	0.00	29.999 
05:45	67.1	67.1	67.1	92	64.7	0	0	---	0.00	29.998 
05:50	67.1	67.1	67.1	92	64.7	0	1	248	0.00	29.998 
05:55	66.9	66.9	66.9	92	64.5	0	0	---	0.00	29.998 
06:00	66.8	66.8	66.8	92	64.4	0	0	---	0.00	29.999 
06:05	66.8	66.8	66.8	93	64.7	0	0	---	0.00	29.999 
06:10	66.6	66.6	66.6	93	64.5	0	0	---	0.00	29.999 
06:15	66.4	66.4	66.4	93	64.3	0	0	---	0.00	30.008 
06:20	66.4	66.4	66.4	93	64.3	0	0	---	0.00	30.008 
06:25	66.3	66.3	66.3	93	64.2	0	0	---	0.00	30.008 
06:30	66.3	66.3	66.3	93	64.2	0	0	---	0.00	30.012 
06:35	66.3	66.3	66.3	93	64.2	0	0	---	0.00	30.012 
06:40	66.3	66.3	66.3	93	64.2	0	0	---	0.00	30.012 
06:45	66.3	66.3	66.3	93	64.2	0	0	---	0.00	30.016 
06:50	66.3	66.3	66.3	94	64.5	0	0	---	0.00	30.016 
06:55	66.4	66.4	66.4	94	64.6	0	0	---	0.00	30.016 
07:00	66.8	66.8	66.8	94	65.0	0	0	---	0.00	30.019 
07:05	66.9	66.9	66.9	94	65.1	0	0	---	0.00	30.019 
07:10	67.3	67.3	67.3	94	65.5	0	0	---	0.00	30.019 
07:15	67.6	67.6	67.6	95	66.1	0	0	---	0.00	30.015 
07:20	67.9	67.9	67.9	95	66.4	0	0	---	0.00	30.015 
07:25	68.4	68.4	68.4	95	66.9	0	0	---	0.00	30.015 
07:30	69.1	69.1	69.1	95	67.6	0	0	---	0.00	30.009 
07:35	69.4	69.4	69.4	93	67.3	0	1	248	0.00	30.009 
07:40	69.8	69.8	69.8	92	67.4	0	1	248	0.00	30.009 
07:45	70.1	70.1	70.1	91	67.3	0	1	248	0.00	30.021 
07:50	70.6	70.6	70.6	89	67.2	0	1	248	0.00	30.021 
07:55	70.9	70.9	70.9	88	67.2	0	1	248	0.00	30.021 
08:00	71.3	71.3	71.3	87	67.2	0	1	248	0.00	30.022 
08:05	71.6	71.6	71.6	87	67.5	0	0	---	0.00	30.022 
08:10	71.8	71.8	71.8	86	67.4	0	1	248	0.00	30.022 
08:15	72.1	72.1	72.1	85	67.3	0	2	248	0.00	30.021 
08:20	72.7	72.7	72.7	84	67.6	1	3	248	0.00	30.021 
08:25	73.2	73.2	73.2	84	68.1	0	2	248	0.00	30.021 
08:30	73.5	73.5	73.5	83	68.0	0	2	248	0.00	30.018 
08:35	73.9	73.9	73.9	82	68.0	0	1	248	0.00	30.018 
08:40	74.0	74.0	74.0	81	67.8	0	1	248	0.00	30.018 
08:45	73.9	73.9	73.9	81	67.7	0	1	248	0.00	30.033 
08:50	73.7	73.7	73.7	82	67.9	2	4	248	0.00	30.033 
08:55	73.3	73.3	73.3	83	67.8	3	5	270	0.01	30.033 
09:00	72.7	72.7	72.7	84	67.6	3	6	248	0.00	30.065 
09:05	72.0	72.0	72.0	87	67.9	3	6	270	0.01	30.065 
09:10	71.5	71.5	71.5	89	68.1	3	6	270	0.07	30.065 
09:15	70.8	70.8	70.8	90	67.7	2	5	248	0.05	30.069 
09:20	70.4	70.4	70.4	91	67.6	1	3	270	0.02	30.069 
09:25	70.3	70.3	70.3	92	67.9	0	2	270	0.01	30.069 
09:30	70.1	70.1	70.1	92	67.7	0	2	270	0.00	30.064 
09:35	70.1	70.1	70.1	93	68.0	0	1	292	0.00	30.064 
09:40	70.1	70.1	70.1	93	68.0	0	1	292	0.01	30.064 
09:45	70.1	70.1	70.1	93	68.0	0	0	---	0.01	30.062 
09:50	70.1	70.1	70.1	93	68.0	0	0	---	0.00	30.062 
09:55	70.1	70.1	70.1	94	68.3	0	0	---	0.01	30.062 
10:00	70.1	70.1	70.1	94	68.3	0	0	---	0.00	30.056 
10:05	70.3	70.3	70.3	94	68.5	0	0	---	0.00	30.056 
10:10	70.4	70.4	70.4	94	68.6	0	1	292	0.00	30.056 
10:15	70.4	70.4	70.4	94	68.6	0	0	---	0.00	30.037 
10:20	70.3	70.3	70.3	93	68.2	0	0	---	0.00	30.037 
10:25	70.4	70.4	70.4	94	68.6	0	0	---	0.00	30.037 
10:30	70.6	70.6	70.6	94	68.8	0	0	---	0.00	30.036 
10:35	70.8	70.8	70.8	94	69.0	0	0	---	0.00	30.036 
10:40	70.9	70.9	70.9	94	69.1	0	0	---	0.00	30.036 
10:45	71.1	71.1	71.1	94	69.3	0	1	292	0.00	30.034 
10:50	71.1	71.1	71.1	93	69.0	0	2	292	0.00	30.034 
10:55	71.5	71.5	71.5	93	69.4	0	1	292	0.00	30.034 
11:00	71.6	71.6	71.6	93	69.5	0	2	292	0.00	30.033 
11:05	71.6	71.6	71.6	92	69.1	1	2	292	0.00	30.033 
11:10	71.8	71.8	71.8	93	69.7	0	1	292	0.00	30.033 
11:15	72.1	72.1	72.1	93	70.0	0	1	292	0.00	30.039 
11:20	72.3	72.3	72.3	92	69.8	0	2	292	0.00	30.039 
11:25	73.2	73.2	73.2	93	71.0	0	1	292	0.00	30.039 
11:30	73.5	73.5	73.5	92	71.0	0	2	292	0.00	30.036 
11:35	74.0	74.0	74.0	87	69.9	1	2	292	0.00	30.036 
11:40	75.1	75.1	74.9	86	70.6	0	2	292	0.00	30.036 
11:45	75.6	75.6	76.2	82	69.7	1	2	292	0.00	30.031 
11:50	75.6	75.6	76.1	83	70.1	1	3	292	0.00	30.031 
11:55	75.8	75.8	76.2	85	71.0	1	2	90	0.00	30.031 
12:00	76.1	76.1	76.8	84	70.9	1	2	90	0.00	30.033 
12:05	76.7	76.7	77.9	84	71.5	0	2	90	0.00	30.033 
12:10	77.0	77.0	78.6	80	70.3	1	3	112	0.00	30.033 
12:15	76.7	76.7	78.0	82	70.8	0	2	112	0.00	30.030 
12:20	76.3	76.3	77.5	80	69.7	1	3	270	0.00	30.030 
12:25	75.8	75.8	76.6	81	69.5	0	1	270	0.00	30.030 
12:30	75.3	75.3	75.6	83	69.8	0	2	270	0.00	30.051 
12:35	75.1	75.1	75.2	84	69.9	1	2	270	0.00	30.051 
12:40	75.1	75.1	75.2	84	69.9	0	1	270	0.00	30.051 
12:45	75.1	75.1	75.0	85	70.3	0	1	270	0.00	30.063 
12:50	75.4	75.4	75.7	84	70.2	0	1	270	0.00	30.063 
12:55	75.4	75.4	75.8	83	69.9	0	2	270	0.00	30.063 
13:00	75.6	75.6	76.0	84	70.4	0	1	270	0.00	30.050 
13:05	76.0	76.0	76.7	84	70.8	0	2	270	0.00	30.050 
13:10	76.1	76.1	77.1	81	69.8	0	2	315	0.00	30.050 
13:15	76.3	76.3	77.6	78	68.9	0	1	315	0.00	30.049 
13:20	76.3	76.3	77.7	75	67.8	0	1	315	0.00	30.049 
13:25	76.3	76.3	77.7	76	68.2	0	2	315	0.00	30.049 
13:30	76.3	76.3	77.7	75	67.8	0	1	315	0.00	30.045 
13:35	76.1	76.1	77.4	76	68.0	0	2	315	0.00	30.045 
13:40	76.0	76.0	77.2	78	68.6	0	1	315	0.00	30.045 
13:45	75.8	75.8	76.9	78	68.4	0	1	315	0.00	30.039 
13:50	75.8	75.8	76.8	79	68.8	0	1	315	0.00	30.039 
13:55	75.8	75.8	76.9	78	68.4	0	1	315	0.00	30.039 
14:00	75.8	75.8	76.9	78	68.4	0	1	68	0.00	30.034 
14:05	75.6	75.6	76.5	79	68.6	0	1	68	0.00	30.034 
14:10	75.4	75.4	76.1	80	68.8	0	0	---	0.00	30.034 
14:15	75.1	75.1	75.6	81	68.9	0	0	---	0.00	30.037 
14:20	74.9	74.9	74.9	81	68.7	0	1	68	0.00	30.037 
14:25	74.9	74.9	74.9	81	68.7	0	1	22	0.00	30.037 
14:30	74.7	74.7	74.7	84	69.5	0	0	---	0.01	30.049 
14:35	74.6	74.6	74.6	85	69.8	0	1	22	0.01	30.049 
14:40	74.6	74.6	74.6	86	70.1	0	2	22	0.00	30.049 
14:45	74.4	74.4	74.4	87	70.3	1	2	22	0.00	30.016 
14:50	74.0	74.0	74.0	87	69.9	1	3	68	0.01	30.016 
14:55	73.7	73.7	73.7	88	69.9	2	4	90	0.00	30.016 
15:00	73.5	73.5	73.5	88	69.7	3	5	90	0.00	29.957 
15:05	73.5	73.5	73.5	88	69.7	3	7	68	0.00	29.957 
15:10	73.5	73.5	73.5	88	69.7	1	4	112	0.00	29.957 
15:15	73.3	73.3	73.3	87	69.2	1	3	112	0.00	29.957 
15:20	73.3	73.3	73.3	84	68.2	2	4	90	0.00	29.957 
15:25	73.3	73.3	73.3	82	67.5	2	4	90	0.00	29.957 
15:30	73.5	73.5	73.5	83	68.0	1	3	90	0.00	29.966 
15:35	73.9	73.9	73.9	84	68.7	1	3	90	0.00	29.966 
15:40	74.4	74.4	74.4	84	69.2	1	3	112	0.00	29.966 
15:45	74.7	74.7	74.7	85	69.9	1	4	90	0.00	29.975 
15:50	75.1	75.1	75.2	84	69.9	1	3	90	0.00	29.975 
15:55	75.4	75.4	75.7	84	70.2	1	2	90	0.00	29.975 
16:00	75.6	75.6	76.0	84	70.4	0	1	90	0.00	29.983 
16:05	76.0	76.0	76.7	83	70.4	1	3	90	0.00	29.983 
16:10	76.7	76.7	78.0	81	70.4	2	3	112	0.00	29.983 
16:15	77.0	77.0	78.6	78	69.6	3	6	90	0.00	29.974 
16:20	76.8	76.8	78.3	78	69.4	3	7	90	0.00	29.974 
16:25	76.8	76.8	78.3	78	69.4	2	5	90	0.00	29.974 
16:30	77.4	77.4	79.3	75	68.8	2	4	112	0.00	29.970 
16:35	77.7	77.7	79.7	74	68.7	2	5	112	0.00	29.970 
16:40	78.1	78.1	80.3	73	68.7	2	4	112	0.00	29.970 
16:45	78.5	78.5	81.0	75	69.9	2	4	135	0.00	29.965 
16:50	78.8	78.8	81.5	76	70.6	1	2	90	0.00	29.965 
16:55	79.2	79.2	81.9	72	69.4	1	6	90	0.00	29.965 
17:00	79.4	79.4	82.1	71	69.2	2	4	90	0.00	29.957 
17:05	79.6	79.6	82.3	70	68.9	1	4	112	0.00	29.957 
17:10	79.8	79.8	82.4	68	68.3	2	4	112	0.00	29.957 
17:15	79.4	79.4	82.1	71	69.2	1	3	90	0.00	29.949 
17:20	79.0	79.0	81.5	71	68.8	2	5	90	0.00	29.949 
17:25	79.0	79.0	81.3	69	67.9	2	4	90	0.00	29.949 
17:30	79.2	79.2	81.8	71	69.0	2	4	90	0.00	29.956 
17:35	79.0	79.0	81.4	70	68.4	2	3	90	0.00	29.956 
17:40	79.2	79.2	81.8	71	69.0	0	2	90	0.00	29.956 
17:45	79.2	79.2	81.8	71	69.0	1	3	90	0.00	29.962 
17:50	79.2	79.2	81.6	69	68.1	1	2	90	0.00	29.962 
17:55	79.2	79.2	81.6	69	68.1	0	2	90	0.00	29.962 
18:00	79.2	79.2	81.8	71	69.0	1	3	90	0.00	29.961 
18:05	79.0	79.0	81.4	70	68.4	0	2	90	0.00	29.961 
18:10	79.2	79.2	81.7	70	68.5	1	2	90	0.00	29.961 
18:15	79.8	79.8	82.5	69	68.7	1	2	90	0.00	29.959 
18:20	80.1	80.1	83.1	70	69.4	1	3	90	0.00	29.959 
18:25	80.1	80.1	82.9	68	68.6	1	3	90	0.00	29.959 
18:30	80.1	80.1	83.0	69	69.0	1	3	90	0.00	29.954 
18:35	79.9	79.9	82.8	70	69.2	1	4	112	0.00	29.954 
18:40	79.9	79.9	82.8	70	69.2	1	4	90	0.00	29.954 
18:45	79.9	79.9	82.8	70	69.2	2	5	90	0.00	29.949 
18:50	79.6	79.6	82.4	71	69.3	2	4	112	0.00	29.949 
18:55	79.2	79.2	81.9	72	69.4	1	2	112	0.00	29.949 
19:00	79.2	79.2	82.0	73	69.8	1	2	112	0.00	29.943 
19:05	79.0	79.0	81.6	73	69.6	1	2	112	0.00	29.943 
19:10	79.0	79.0	81.7	74	70.0	1	3	112	0.00	29.943 
19:15	78.8	78.8	81.4	74	69.8	1	3	112	0.00	29.937 
19:20	78.8	78.8	81.5	75	70.2	0	2	112	0.00	29.937 
19:25	78.8	78.8	81.5	76	70.6	0	1	112	0.00	29.937 
19:30	78.6	78.6	81.2	76	70.4	1	2	112	0.00	29.938 
19:35	78.5	78.5	81.0	76	70.3	0	1	112	0.00	29.938 
19:40	78.5	78.5	81.0	76	70.3	0	1	112	0.00	29.938 
19:45	78.5	78.5	81.1	77	70.7	0	2	112	0.00	29.941 
19:50	78.5	78.5	81.1	77	70.7	0	2	112	0.00	29.941 
19:55	78.5	78.5	81.1	77	70.7	0	2	112	0.00	29.941 
20:00	78.3	78.3	80.8	78	70.9	0	2	112	0.00	29.936 
20:05	78.3	78.3	80.8	78	70.9	1	2	135	0.00	29.936 
20:10	78.1	78.1	80.5	79	71.0	1	2	112	0.00	29.936 
20:15	77.9	77.9	80.1	79	70.8	0	3	112	0.00	29.921 
20:20	77.9	77.9	80.1	80	71.2	0	1	135	0.00	29.921 
20:25	77.9	77.9	80.1	80	71.2	1	2	135	0.00	29.921 
20:30	77.7	77.7	79.8	80	71.0	1	3	135	0.00	29.919 
20:35	77.7	77.7	79.8	81	71.4	0	2	90	0.00	29.919 
20:40	77.6	77.6	79.6	81	71.3	0	2	90	0.00	29.919 
20:45	77.6	77.6	79.6	81	71.3	1	4	90	0.00	29.917 
20:50	77.4	77.4	79.2	82	71.5	0	1	90	0.00	29.917 
20:55	77.4	77.4	79.2	82	71.5	0	1	90	0.00	29.917 
21:00	77.2	77.2	78.8	83	71.6	0	1	90	0.00	29.913 
21:05	77.0	77.0	78.5	83	71.4	0	1	90	0.00	29.913 
21:10	76.8	76.8	78.1	83	71.2	0	1	90	0.00	29.913 
21:15	76.7	76.7	77.9	84	71.5	0	1	90	0.00	29.895 
21:20	76.3	76.3	77.2	84	71.1	0	2	90	0.00	29.895 
21:25	76.1	76.1	76.7	85	71.2	0	1	90	0.00	29.895 
21:30	76.0	76.0	76.6	85	71.2	0	0	---	0.00	29.890 
21:35	75.8	75.8	76.1	86	71.3	0	0	---	0.00	29.890 
21:40	75.6	75.6	75.8	86	71.1	0	0	---	0.00	29.890 
21:45	75.4	75.4	75.3	87	71.2	0	1	90	0.00	29.891 
21:50	75.3	75.3	75.1	87	71.2	0	0	---	0.00	29.891 
21:55	75.1	75.1	74.7	87	71.0	0	0	---	0.00	29.891 
22:00	75.1	75.1	74.7	87	71.0	0	1	90	0.00	29.899 
22:05	75.1	75.1	74.7	87	71.0	0	0	---	0.00	29.899 
22:10	75.1	75.1	74.7	87	71.0	0	0	---	0.00	29.899 
22:15	75.1	75.1	74.7	87	71.0	0	0	---	0.00	29.920 
22:20	75.1	75.1	74.7	87	71.0	0	0	---	0.00	29.920 
22:25	75.1	75.1	74.9	86	70.6	0	0	---	0.00	29.920 
22:30	75.1	75.1	74.9	86	70.6	0	0	---	0.00	29.920 
22:35	75.1	75.1	74.9	86	70.6	0	1	90	0.00	29.920 
22:40	75.1	75.1	75.0	85	70.3	0	0	---	0.00	29.920 
22:45	75.1	75.1	75.0	85	70.3	0	0	---	0.00	29.916 
22:50	75.1	75.1	75.0	85	70.3	0	0	---	0.00	29.916 
22:55	75.1	75.1	74.9	86	70.6	0	0	---	0.00	29.916 
23:00	75.1	75.1	75.0	85	70.3	0	1	90	0.00	29.913 
23:05	75.1	75.1	75.2	84	69.9	0	2	90	0.00	29.913 
23:10	75.3	75.3	75.5	84	70.1	0	1	90	0.00	29.913 
23:15	75.3	75.3	75.5	84	70.1	0	1	90	0.00	29.905 
23:20	75.3	75.3	75.5	84	70.1	0	2	270	0.00	29.905 
23:25	75.3	75.3	75.6	83	69.8	1	3	248	0.00	29.905 
23:30	75.4	75.4	76.0	81	69.1	1	4	248	0.00	29.917 
23:35	76.0	76.0	77.3	76	67.9	3	10	270	0.00	29.917 
23:40	76.3	76.3	77.7	75	67.8	2	5	248	0.00	29.917 
23:45	76.3	76.3	77.8	74	67.4	3	5	248	0.00	29.923 
23:50	76.3	76.3	77.8	74	67.4	2	5	248	0.00	29.923 
23:55	76.3	76.3	77.8	74	67.4	3	7	270	0.00	29.923 

CoCoRaHS
IN-AL-39
A2 Web Hosting
Creative Commons License
GoDaddy
Look for:

loaded 2017-12-11 12:29:44 • last modified 2010-11-18 10:43:29
Privacy PolicyDisclaimer
• wx.awcolley.com is powered by PmWiki v.2002016 •
• all content (unless otherwise noted) © 2017 A W Colley